Time;durP1;ratioP1;P1;durP2;ratioP2;P2;SDS_P1;SDS_P2;PMS_P1;PMS_P2;Temp;Humidity;BMP_temperature;BMP_pressure;BME280_temperature;BME280_humidity;BME280_pressure;Samples;Min_cycle;Max_cycle;Signal;HPM_P1;HPM_P2
2022/12/13 00:00:55;;;;;;;9.20;5.60;;;;;;;-3.85;80.63;97898.55;102278;1285;63057;-25
2022/12/13 00:03:22;;;;;;;6.10;3.60;;;;;;;-4.01;81.40;97898.19;102280;1293;75105;-25
2022/12/13 00:05:49;;;;;;;7.50;4.60;;;;;;;-3.52;80.91;97896.35;102287;1295;75568;-25
2022/12/13 00:08:17;;;;;;;7.00;3.80;;;;;;;-2.87;79.07;97895.23;102323;1300;75372;-25
2022/12/13 00:10:43;;;;;;;7.60;5.40;;;;;;;-2.71;77.92;97897.74;102283;1302;61758;-25
2022/12/13 00:13:10;;;;;;;9.00;4.90;;;;;;;-2.92;77.68;97898.33;102011;1299;61571;-25
2022/12/13 00:15:37;;;;;;;8.00;4.70;;;;;;;-3.16;78.12;97903.81;102232;1300;75066;-27
2022/12/13 00:18:04;;;;;;;8.40;4.70;;;;;;;-3.39;78.91;97903.59;102272;1298;75790;-26
2022/12/13 00:20:31;;;;;;;7.70;4.90;;;;;;;-3.63;79.56;97907.50;102192;1301;75206;-26
2022/12/13 00:22:58;;;;;;;8.50;5.60;;;;;;;-3.81;80.24;97910.27;102009;1301;61815;-26
2022/12/13 00:25:25;;;;;;;6.90;4.30;;;;;;;-3.89;80.72;97910.41;102349;1302;63008;-26
2022/12/13 00:27:52;;;;;;;8.90;4.40;;;;;;;-3.27;80.03;97909.36;102231;1299;74915;-25
2022/12/13 00:30:19;;;;;;;2.80;2.50;;;;;;;-2.81;78.08;97909.38;102186;1294;76704;-23
2022/12/13 00:32:46;;;;;;;6.70;4.50;;;;;;;-2.82;77.22;97911.30;102095;1301;75361;-23
2022/12/13 00:35:13;;;;;;;7.40;4.40;;;;;;;-3.05;77.61;97916.40;101987;1294;62309;-23
2022/12/13 00:37:40;;;;;;;9.10;5.00;;;;;;;-3.28;78.40;97918.06;102322;1294;62536;-23
2022/12/13 00:40:08;;;;;;;5.80;3.70;;;;;;;-3.43;78.75;97917.02;102332;1294;75289;-23
2022/12/13 00:42:35;;;;;;;3.00;2.60;;;;;;;-3.72;79.83;97916.34;102320;1292;76758;-23
2022/12/13 00:45:02;;;;;;;8.30;4.90;;;;;;;-3.84;80.56;97920.05;102311;1302;74288;-23
2022/12/13 00:47:30;;;;;;;7.20;3.80;;;;;;;-3.36;79.99;97918.42;102131;1297;62098;-23
2022/12/13 00:49:57;;;;;;;9.40;5.70;;;;;;;-2.92;78.19;97915.48;102110;1301;62567;-23
2022/12/13 00:52:24;;;;;;;8.00;5.00;;;;;;;-2.87;77.12;97916.60;102257;1292;75860;-23
2022/12/13 00:54:51;;;;;;;10.50;6.20;;;;;;;-3.08;77.35;97911.93;102319;1294;76641;-23
2022/12/13 00:57:18;;;;;;;7.30;4.60;;;;;;;-3.34;77.75;97910.36;102139;1301;75187;-23
2022/12/13 00:59:45;;;;;;;9.40;5.40;;;;;;;-3.62;78.25;97906.79;101971;1301;61863;-23
2022/12/13 01:02:14;;;;;;;8.90;5.40;;;;;;;-3.90;78.65;97908.41;102161;1295;62618;-23
2022/12/13 01:04:41;;;;;;;8.40;5.10;;;;;;;-4.15;79.20;97909.06;102117;1301;76369;-23
2022/12/13 01:07:08;;;;;;;8.70;5.30;;;;;;;-4.35;79.70;97906.45;102184;1301;75703;-23
2022/12/13 01:09:35;;;;;;;6.20;3.50;;;;;;;-4.51;80.61;97904.19;102295;1300;75038;-23
2022/12/13 01:12:04;;;;;;;9.20;5.20;;;;;;;-4.02;80.55;97899.40;102292;1302;62499;-24
2022/12/13 01:14:34;;;;;;;9.00;5.10;;;;;;;-3.38;78.68;97895.23;102191;1295;61465;-25
2022/12/13 01:17:00;;;;;;;7.90;4.40;;;;;;;-3.28;77.65;97894.30;102158;1299;75790;-25
2022/12/13 01:19:28;;;;;;;7.60;4.00;;;;;;;-3.40;77.94;97891.59;102312;1292;76760;-25
2022/12/13 01:22:02;;;;;;;5.80;4.00;;;;;;;-3.62;78.00;97892.85;102344;1297;73816;-25
2022/12/13 01:24:29;;;;;;;6.40;4.00;;;;;;;-3.93;78.85;97898.05;102213;1299;61140;-25
2022/12/13 01:26:56;;;;;;;6.50;4.00;;;;;;;-4.23;79.99;97896.35;102343;1299;61822;-25
2022/12/13 01:29:24;;;;;;;6.90;3.80;;;;;;;-4.37;80.49;97893.68;102171;1298;76399;-25
2022/12/13 01:31:52;;;;;;;5.30;2.90;;;;;;;-4.38;80.54;97891.83;102312;1292;76675;-24
2022/12/13 01:34:20;;;;;;;7.00;4.40;;;;;;;-3.75;79.91;97892.89;102356;1294;75125;-25
2022/12/13 01:36:53;;;;;;;4.70;3.20;;;;;;;-3.36;78.27;97896.54;101988;1295;62273;-25
2022/12/13 01:39:24;;;;;;;5.70;3.90;;;;;;;-3.44;78.13;97898.20;102346;1292;62570;-25
2022/12/13 01:41:58;;;;;;;4.80;3.10;;;;;;;-3.58;78.56;97896.93;102385;1293;76073;-25
2022/12/13 01:44:56;;;;;;;5.50;4.00;;;;;;;-3.82;78.81;97902.17;102218;1299;76727;-25
2022/12/13 01:47:31;;;;;;;4.50;3.40;;;;;;;-4.10;79.60;97904.46;102163;1301;75242;-25
2022/12/13 01:50:00;;;;;;;8.70;3.80;;;;;;;-4.15;80.52;97906.88;102101;1300;63426;-25
2022/12/13 01:52:29;;;;;;;2.20;1.60;;;;;;;-3.61;79.62;97900.63;101966;1304;62912;-25
2022/12/13 01:54:56;;;;;;;3.70;2.60;;;;;;;-3.39;78.38;97902.59;102349;1290;75387;-25
2022/12/13 01:57:41;;;;;;;8.90;5.30;;;;;;;-3.62;78.60;97899.14;102031;1302;76768;-25
2022/12/13 02:00:12;;;;;;;9.20;5.30;;;;;;;-3.86;79.16;97893.52;102097;1302;75252;-25
2022/12/13 02:02:39;;;;;;;7.30;4.80;;;;;;;-4.00;79.11;97888.48;102074;1297;62363;-25
2022/12/13 02:05:38;;;;;;;6.00;3.60;;;;;;;-4.31;80.20;97889.70;102252;1299;62501;-25
2022/12/13 02:08:05;;;;;;;6.80;4.00;;;;;;;-4.56;82.06;97890.52;102122;1295;76455;-25
2022/12/13 02:10:32;;;;;;;7.80;4.60;;;;;;;-4.12;81.78;97891.33;102049;1299;76738;-25
2022/12/13 02:12:59;;;;;;;5.60;4.10;;;;;;;-3.65;80.16;97886.02;101995;1301;75880;-25
2022/12/13 02:15:30;;;;;;;8.30;5.20;;;;;;;-3.49;79.06;97885.02;102268;1284;61193;-25
2022/12/13 02:18:10;;;;;;;7.20;4.90;;;;;;;-3.63;78.50;97886.63;101965;1299;61825;-25
2022/12/13 02:20:52;;;;;;;11.00;4.90;;;;;;;-3.90;78.76;97881.28;102287;1292;75462;-25
2022/12/13 02:23:38;;;;;;;7.60;4.50;;;;;;;-4.16;79.23;97879.13;102154;1294;75735;-24
2022/12/13 02:26:33;;;;;;;7.20;4.70;;;;;;;-4.40;79.73;97882.27;102129;1292;74156;-25
2022/12/13 02:29:19;;;;;;;7.40;4.80;;;;;;;-4.63;80.49;97884.66;102143;1301;62897;-25
2022/12/13 02:32:27;;;;;;;5.50;3.50;;;;;;;-4.75;81.80;97891.05;102225;1295;62617;-25
2022/12/13 02:35:08;;;;;;;5.00;3.30;;;;;;;-3.96;81.61;97891.52;102131;1299;76756;-25
2022/12/13 02:37:57;;;;;;;9.20;4.90;;;;;;;-3.42;79.40;97894.59;102050;1285;74901;-25
2022/12/13 02:40:37;;;;;;;10.00;4.70;;;;;;;-3.43;78.63;97895.44;102310;1292;72874;-25
2022/12/13 02:43:16;;;;;;;8.00;4.80;;;;;;;-3.67;78.54;97895.27;102172;1302;61135;-25
2022/12/13 02:45:51;;;;;;;10.30;4.10;;;;;;;-3.99;78.89;97902.50;102104;1288;61694;-25
2022/12/13 02:48:22;;;;;;;6.80;4.00;;;;;;;-4.30;80.03;97905.77;102080;1304;76444;-27
2022/12/13 02:50:50;;;;;;;1.30;1.20;;;;;;;-4.47;80.43;97909.98;102020;1299;77117;-26
2022/12/13 02:53:17;;;;;;;8.30;4.90;;;;;;;-4.44;81.09;97908.85;101941;1302;73191;-26
2022/12/13 02:55:44;;;;;;;6.20;3.70;;;;;;;-3.88;80.14;97911.40;102314;1300;61996;-29
2022/12/13 02:58:12;;;;;;;8.40;5.20;;;;;;;-3.68;79.19;97913.65;102282;1299;62669;-27
2022/12/13 03:01:15;;;;;;;9.60;5.40;;;;;;;-3.84;79.39;97914.61;102022;1305;75290;-27
2022/12/13 03:04:17;;;;;;;10.20;4.70;;;;;;;-4.08;79.65;97914.39;102156;1292;76258;-23
2022/12/13 03:07:21;;;;;;;8.50;5.10;;;;;;;-4.31;79.87;97912.91;102291;1300;75242;-23
2022/12/13 03:09:53;;;;;;;8.10;4.30;;;;;;;-4.57;80.03;97915.08;102259;1285;61131;-23
2022/12/13 03:15:22;;;;;;;6.80;4.10;;;;;;;-3.99;80.08;97913.70;102227;1299;74268;-23
2022/12/13 03:17:59;;;;;;;8.60;4.60;;;;;;;-3.57;78.40;97915.55;102196;1301;75549;-23
2022/12/13 03:20:27;;;;;;;6.40;3.90;;;;;;;-3.75;78.15;97917.12;102023;1303;75458;-23
2022/12/13 03:22:54;;;;;;;4.30;2.90;;;;;;;-4.08;79.27;97912.70;102071;1302;61169;-23
2022/12/13 03:25:23;;;;;;;8.70;5.60;;;;;;;-4.30;80.28;97910.02;102192;1299;61132;-23
2022/12/13 03:28:00;;;;;;;8.90;4.50;;;;;;;-4.47;80.57;97909.98;102075;1297;76376;-23
2022/12/13 03:30:29;;;;;;;7.40;4.70;;;;;;;-4.65;81.18;97914.55;102074;1299;77065;-23
2022/12/13 03:32:56;;;;;;;6.00;3.80;;;;;;;-4.73;81.71;97915.05;102339;1298;75031;-23
2022/12/13 03:35:23;;;;;;;5.50;3.40;;;;;;;-4.17;81.18;97918.33;102312;1300;61150;-23
2022/12/13 03:38:01;;;;;;;9.40;4.80;;;;;;;-3.55;79.32;97918.67;102268;1297;61496;-23
2022/12/13 03:40:28;;;;;;;9.00;6.30;;;;;;;-3.55;77.94;97916.96;102240;1293;76277;-24
2022/12/13 03:42:55;;;;;;;3.10;2.40;;;;;;;-3.76;77.97;97917.52;102076;1278;74557;-23
2022/12/13 03:45:22;;;;;;;7.60;4.70;;;;;;;-4.06;78.68;97916.02;102323;1298;74993;-23
2022/12/13 03:47:49;;;;;;;5.00;3.50;;;;;;;-4.29;79.25;97915.56;102291;1299;61114;-23
2022/12/13 03:50:16;;;;;;;3.70;2.00;;;;;;;-4.52;79.86;97915.60;102306;1292;62885;-22
2022/12/13 03:53:00;;;;;;;5.90;2.70;;;;;;;-4.48;79.99;97921.53;102345;1285;76283;-23
2022/12/13 03:55:27;;;;;;;3.90;2.70;;;;;;;-3.82;78.93;97926.41;102190;1299;76801;-23
2022/12/13 03:57:54;;;;;;;5.90;3.80;;;;;;;-3.63;77.88;97929.05;102374;1299;75408;-24
2022/12/13 04:00:21;;;;;;;11.00;5.70;;;;;;;-3.78;77.93;97932.35;102303;1300;62051;-24
2022/12/13 04:02:48;;;;;;;8.30;4.90;;;;;;;-4.01;78.36;97934.63;102244;1299;61661;-24
2022/12/13 04:05:15;;;;;;;8.50;5.10;;;;;;;-4.28;79.13;97933.13;102282;1302;76264;-24
2022/12/13 04:07:42;;;;;;;6.00;4.20;;;;;;;-4.53;79.77;97938.16;102320;1292;76893;-24
2022/12/13 04:10:14;;;;;;;7.40;3.70;;;;;;;-4.72;80.56;97940.23;102340;1302;75053;-24
2022/12/13 04:15:39;;;;;;;9.60;6.00;;;;;;;-3.91;79.56;97932.21;102115;1298;61882;-23
2022/12/13 04:18:05;;;;;;;8.10;4.90;;;;;;;-3.78;78.16;97934.36;102021;1287;76341;-23
2022/12/13 04:20:32;;;;;;;10.50;6.20;;;;;;;-3.96;78.22;97933.92;102334;1297;76692;-23
2022/12/13 04:22:59;;;;;;;9.50;5.60;;;;;;;-4.21;78.60;97931.85;102270;1294;74149;-24
2022/12/13 04:25:37;;;;;;;11.80;5.90;;;;;;;-4.60;80.05;97935.02;102227;1292;61987;-24
2022/12/13 04:28:05;;;;;;;8.50;5.10;;;;;;;-4.81;81.08;97937.01;102105;1299;62183;-24
2022/12/13 04:30:32;;;;;;;7.90;4.70;;;;;;;-5.01;81.81;97938.89;102279;1298;74511;-24
2022/12/13 04:32:59;;;;;;;10.00;6.50;;;;;;;-4.91;82.24;97936.85;102306;1293;74552;-24
2022/12/13 04:35:26;;;;;;;12.40;6.00;;;;;;;-4.20;80.53;97938.05;102297;1294;75158;-24
2022/12/13 04:37:53;;;;;;;9.60;5.70;;;;;;;-3.92;78.84;97930.54;102187;1302;61099;-24
2022/12/13 04:40:20;;;;;;;10.50;6.30;;;;;;;-4.05;78.12;97931.25;102167;1297;62699;-24
2022/12/13 04:42:48;;;;;;;9.50;5.70;;;;;;;-4.28;78.23;97928.03;102239;1302;76349;-24
2022/12/13 04:45:20;;;;;;;10.40;6.40;;;;;;;-4.58;78.77;97932.61;102335;1299;76744;-24
2022/12/13 04:47:47;;;;;;;7.10;4.70;;;;;;;-4.91;79.36;97931.77;102130;1299;74542;-24
2022/12/13 04:50:14;;;;;;;10.20;5.60;;;;;;;-5.16;80.65;97935.55;102083;1294;62613;-24
2022/12/13 04:52:41;;;;;;;7.90;4.60;;;;;;;-5.31;81.36;97938.77;102301;1299;61595;-24
2022/12/13 04:55:08;;;;;;;8.30;5.20;;;;;;;-5.09;81.90;97942.73;102167;1297;75192;-24
2022/12/13 04:57:37;;;;;;;9.30;6.00;;;;;;;-4.23;80.64;97941.25;102370;1299;76441;-24
2022/12/13 05:00:05;;;;;;;10.80;5.50;;;;;;;-3.84;78.81;97943.46;102303;1297;75211;-24
2022/12/13 05:02:32;;;;;;;8.80;5.10;;;;;;;-3.90;77.82;97943.55;102219;1301;61154;-24
2022/12/13 05:04:59;;;;;;;8.90;5.20;;;;;;;-4.17;77.80;97943.56;102315;1300;62948;-24
2022/12/13 05:07:26;;;;;;;9.50;5.70;;;;;;;-4.49;78.32;97944.80;102248;1300;75460;-23
2022/12/13 05:09:53;;;;;;;11.10;5.40;;;;;;;-4.81;79.81;97942.23;102261;1302;76608;-24
2022/12/13 05:12:20;;;;;;;5.80;4.40;;;;;;;-5.00;80.73;97936.80;102296;1300;75292;-24
2022/12/13 05:14:50;;;;;;;11.60;5.20;;;;;;;-5.17;80.93;97934.90;102251;1292;61922;-24
2022/12/13 05:17:17;;;;;;;6.70;4.50;;;;;;;-4.99;81.10;97937.98;102171;1294;61853;-24
2022/12/13 05:19:44;;;;;;;9.30;5.60;;;;;;;-4.24;80.04;97939.43;102247;1299;75392;-24
2022/12/13 05:22:14;;;;;;;8.70;5.50;;;;;;;-4.05;78.34;97940.38;102297;1302;76383;-27
2022/12/13 05:24:45;;;;;;;8.70;5.10;;;;;;;-4.15;78.26;97945.35;102394;1291;75013;-25
2022/12/13 05:27:12;;;;;;;8.10;5.30;;;;;;;-4.32;78.28;97947.02;102328;1301;61161;-26
2022/12/13 05:29:55;;;;;;;7.00;4.80;;;;;;;-4.59;78.62;97951.58;102195;1297;62940;-24
2022/12/13 05:32:32;;;;;;;10.80;6.80;;;;;;;-4.88;78.85;97956.05;102093;1297;75754;-26
2022/12/13 05:35:14;;;;;;;11.20;6.20;;;;;;;-5.17;79.39;97951.80;102022;1299;76719;-25
2022/12/13 05:37:50;;;;;;;9.10;4.00;;;;;;;-5.40;79.95;97954.98;102253;1301;75100;-24
2022/12/13 05:40:25;;;;;;;12.40;5.90;;;;;;;-5.22;80.40;97954.00;102049;1302;64505;-24
2022/12/13 05:42:52;;;;;;;10.50;5.70;;;;;;;-4.47;79.62;97959.80;102303;1302;62881;-24
2022/12/13 05:45:28;;;;;;;9.80;6.30;;;;;;;-4.22;78.44;97961.55;102334;1298;76162;-25
2022/12/13 05:47:55;;;;;;;11.50;6.60;;;;;;;-4.34;78.34;97959.81;102032;1299;76863;-24
2022/12/13 05:50:22;;;;;;;6.90;4.50;;;;;;;-4.60;78.87;97964.67;102321;1292;75157;-24
2022/12/13 05:52:49;;;;;;;12.00;6.50;;;;;;;-4.86;79.99;97965.27;102149;1302;62114;-24
2022/12/13 05:55:16;;;;;;;18.80;10.10;;;;;;;-5.03;80.54;97970.12;102327;1292;61433;-24
2022/12/13 05:57:44;;;;;;;12.60;6.60;;;;;;;-5.28;81.02;97970.97;102308;1299;76412;-24
2022/12/13 06:00:17;;;;;;;10.90;5.70;;;;;;;-5.47;81.97;97976.67;102254;1300;76780;-24
2022/12/13 06:02:57;;;;;;;10.10;4.70;;;;;;;-5.28;82.36;97974.03;102008;1295;73191;-24
2022/12/13 06:05:30;;;;;;;8.50;5.60;;;;;;;-4.57;81.05;97973.39;102258;1295;61978;-24
2022/12/13 06:07:57;;;;;;;10.90;5.20;;;;;;;-4.31;79.79;97976.83;102011;1299;61653;-24
2022/12/13 06:10:25;;;;;;;12.30;7.00;;;;;;;-4.32;79.43;97980.92;102224;1295;76393;-24
2022/12/13 06:13:00;;;;;;;11.50;6.10;;;;;;;-4.47;79.59;97977.25;101997;1299;76769;-24
2022/12/13 06:16:17;;;;;;;7.90;5.00;;;;;;;-4.67;80.28;97981.02;99202;1331;600428;-24
2022/12/13 06:18:49;;;;;;;10.10;6.60;;;;;;;-4.88;80.61;97982.14;101294;1318;61568;-25
2022/12/13 06:21:18;;;;;;;15.10;9.20;;;;;;;-4.92;81.01;97985.33;101374;1310;62596;-25
2022/12/13 06:23:45;;;;;;;10.50;5.00;;;;;;;-4.97;80.74;97984.45;101789;1299;74979;-24
2022/12/13 06:26:12;;;;;;;11.10;6.00;;;;;;;-4.41;80.86;97985.83;101723;1307;76614;-25
2022/12/13 06:28:39;;;;;;;10.40;4.90;;;;;;;-3.53;79.34;97989.88;101889;1305;74280;-25
2022/12/13 06:31:06;;;;;;;9.30;6.00;;;;;;;-3.20;78.54;97992.25;101166;1300;1247926;-25
2022/12/13 06:33:35;;;;;;;10.60;6.30;;;;;;;-3.23;77.79;97998.31;102127;1301;62016;-25
2022/12/13 06:36:02;;;;;;;10.80;5.90;;;;;;;-3.37;78.11;98000.28;102110;1303;73751;-25
2022/12/13 06:38:30;;;;;;;13.60;7.10;;;;;;;-3.57;78.11;98001.24;102006;1288;75692;-25
2022/12/13 06:41:09;;;;;;;14.40;7.50;;;;;;;-3.76;78.50;98003.69;101989;1297;75321;-25
2022/12/13 06:43:36;;;;;;;11.80;6.80;;;;;;;-3.86;79.05;98007.33;101895;1297;61134;-25
2022/12/13 06:46:04;;;;;;;12.40;6.60;;;;;;;-3.91;79.61;98010.71;101980;1304;62977;-25
2022/12/13 06:48:31;;;;;;;9.10;5.90;;;;;;;-3.92;79.82;98013.48;102172;1294;75682;-25
2022/12/13 06:51:08;;;;;;;7.90;4.20;;;;;;;-3.84;79.96;98011.32;102150;1303;75481;-24
2022/12/13 06:53:36;;;;;;;10.60;5.60;;;;;;;-3.07;79.81;98011.93;101870;1304;74245;-25
2022/12/13 06:56:04;;;;;;;18.90;6.10;;;;;;;-2.32;77.74;98013.59;101886;1301;61810;-25
2022/12/13 06:58:32;;;;;;;7.40;4.70;;;;;;;-2.13;76.70;98015.79;101894;1296;62735;-25
2022/12/13 07:01:04;;;;;;;9.20;5.50;;;;;;;-2.29;76.43;98012.76;101947;1305;75505;-25
2022/12/13 07:03:40;;;;;;;11.60;5.90;;;;;;;-2.53;76.71;98014.34;102098;1306;76218;-25
2022/12/13 07:06:08;;;;;;;9.60;5.40;;;;;;;-2.75;77.17;98011.92;102045;1303;74309;-25
2022/12/13 07:08:35;;;;;;;10.20;5.60;;;;;;;-2.99;78.34;98019.38;101880;1306;61939;-25
2022/12/13 07:11:02;;;;;;;10.20;6.40;;;;;;;-3.16;79.49;98015.36;101935;1303;62815;-25
2022/12/13 07:13:29;;;;;;;6.60;4.20;;;;;;;-3.29;80.36;98014.85;101972;1303;74442;-25
2022/12/13 07:15:57;;;;;;;7.90;5.40;;;;;;;-3.31;81.18;98013.95;102023;1301;77154;-25
2022/12/13 07:18:27;;;;;;;9.10;5.70;;;;;;;-2.62;80.46;98012.52;101942;1300;74941;-25
2022/12/13 07:20:54;;;;;;;5.80;4.10;;;;;;;-2.10;78.42;98016.14;101954;1305;62453;-25
2022/12/13 07:23:21;;;;;;;7.70;4.70;;;;;;;-2.01;77.80;98021.18;102084;1302;62670;-25
2022/12/13 07:25:52;;;;;;;9.20;5.80;;;;;;;-2.15;77.69;98022.52;102092;1305;75644;-25
2022/12/13 07:28:19;;;;;;;7.50;4.50;;;;;;;-2.39;78.80;98022.41;101899;1302;76805;-25
2022/12/13 07:30:46;;;;;;;6.90;5.00;;;;;;;-2.60;79.41;98021.47;101906;1297;75008;-25
2022/12/13 07:33:14;;;;;;;6.40;4.30;;;;;;;-2.76;80.24;98024.20;102018;1301;61165;-25
2022/12/13 07:35:48;;;;;;;6.20;4.00;;;;;;;-2.89;81.56;98023.73;101988;1303;62891;-25
2022/12/13 07:38:21;;;;;;;10.60;7.10;;;;;;;-2.34;80.71;98024.21;102165;1302;75748;-25
2022/12/13 07:40:48;;;;;;;10.00;5.90;;;;;;;-1.90;78.95;98037.00;102004;1301;77224;-25
2022/12/13 07:43:15;;;;;;;9.90;5.10;;;;;;;-1.82;78.55;98039.88;102093;1302;75219;-24
2022/12/13 07:45:42;;;;;;;7.60;5.30;;;;;;;-2.00;78.84;98038.98;101932;1302;61811;-24
2022/12/13 07:48:09;;;;;;;11.30;7.00;;;;;;;-2.27;80.07;98050.77;101939;1302;62927;-24
2022/12/13 07:50:36;;;;;;;8.10;5.00;;;;;;;-2.37;80.81;98052.39;102037;1294;75307;-24
2022/12/13 07:53:05;;;;;;;5.70;4.10;;;;;;;-2.50;81.61;98059.97;101959;1305;76789;-24
2022/12/13 07:55:33;;;;;;;4.60;3.60;;;;;;;-2.26;81.78;98059.58;101791;1302;74244;-24
2022/12/13 07:58:11;;;;;;;7.50;4.60;;;;;;;-1.76;80.51;98061.23;102124;1302;61425;-25
2022/12/13 08:00:42;;;;;;;9.70;5.40;;;;;;;-1.62;79.24;98063.11;102120;1302;61758;-26
2022/12/13 08:03:13;;;;;;;7.20;4.60;;;;;;;-1.71;79.38;98068.64;102146;1302;75467;-26
2022/12/13 08:06:02;;;;;;;10.10;6.30;;;;;;;-1.86;79.99;98073.09;101966;1305;76739;-25
2022/12/13 08:08:30;;;;;;;9.50;6.50;;;;;;;-2.11;80.84;98072.33;101955;1302;75205;-26
2022/12/13 08:11:05;;;;;;;11.20;5.80;;;;;;;-2.21;81.61;98080.78;101999;1301;61959;-24
2022/12/13 08:13:32;;;;;;;11.00;6.10;;;;;;;-2.11;81.72;98078.43;101909;1303;62950;-23
2022/12/13 08:16:01;;;;;;;7.50;4.60;;;;;;;-1.54;80.51;98085.88;102040;1301;75177;-23
2022/12/13 08:18:28;;;;;;;9.50;6.10;;;;;;;-1.17;78.97;98087.70;101983;1297;76778;-23
2022/12/13 08:20:59;;;;;;;10.00;6.50;;;;;;;-1.24;78.23;98086.83;102169;1301;73988;-23
2022/12/13 08:23:26;;;;;;;9.20;6.20;;;;;;;-1.51;78.91;98090.84;101897;1301;61174;-23
2022/12/13 08:25:54;;;;;;;12.40;6.70;;;;;;;-1.70;80.06;98093.96;102130;1301;62234;-24
2022/12/13 08:28:21;;;;;;;10.00;6.50;;;;;;;-1.80;80.75;98095.63;101852;1302;75583;-23
2022/12/13 08:30:48;;;;;;;8.20;5.00;;;;;;;-1.92;81.30;98097.02;102177;1302;76540;-23
2022/12/13 08:33:15;;;;;;;7.40;4.80;;;;;;;-1.54;80.86;98099.83;101951;1306;74239;-23
2022/12/13 08:35:42;;;;;;;12.30;7.60;;;;;;;-1.05;78.50;98098.91;102043;1302;61240;-24
2022/12/13 08:38:09;;;;;;;7.80;4.60;;;;;;;-0.97;77.99;98101.22;101915;1302;62026;-24
2022/12/13 08:40:37;;;;;;;9.70;4.70;;;;;;;-1.06;77.70;98102.67;101916;1294;73543;-24
2022/12/13 08:43:04;;;;;;;11.60;6.00;;;;;;;-1.21;78.57;98102.73;101957;1301;76545;-24
2022/12/13 08:45:33;;;;;;;11.80;7.20;;;;;;;-1.35;79.23;98106.44;101928;1299;74171;-24
2022/12/13 08:48:00;;;;;;;11.50;7.50;;;;;;;-1.54;80.20;98109.91;101947;1290;61799;-24
2022/12/13 08:50:28;;;;;;;10.00;6.20;;;;;;;-1.66;81.01;98110.42;101932;1302;62902;-24
2022/12/13 08:52:55;;;;;;;10.10;6.90;;;;;;;-1.19;80.08;98111.99;101902;1302;73376;-24
2022/12/13 08:55:22;;;;;;;8.50;5.90;;;;;;;-0.66;78.03;98115.17;101926;1302;74782;-24
2022/12/13 08:57:58;;;;;;;8.70;6.10;;;;;;;-0.57;76.96;98119.02;101822;1300;75227;-24
2022/12/13 09:00:27;;;;;;;10.40;6.10;;;;;;;-0.89;77.49;98120.05;101889;1302;61230;-24
2022/12/13 09:03:03;;;;;;;7.10;4.90;;;;;;;-1.10;78.29;98117.67;101983;1300;61839;-24
2022/12/13 09:05:32;;;;;;;10.40;5.40;;;;;;;-1.23;79.25;98122.22;101881;1303;74305;-24
2022/12/13 09:08:02;;;;;;;10.10;6.40;;;;;;;-1.45;79.80;98122.42;101981;1301;77099;-24
2022/12/13 09:10:59;;;;;;;8.90;6.00;;;;;;;-1.55;80.57;98129.54;102195;1300;75077;-24
2022/12/13 09:13:38;;;;;;;7.40;5.20;;;;;;;-0.92;79.07;98133.21;102196;1291;62033;-24
2022/12/13 09:16:18;;;;;;;7.10;5.30;;;;;;;-0.73;77.30;98135.30;102189;1301;62997;-24
2022/12/13 09:18:53;;;;;;;7.50;5.30;;;;;;;-0.85;77.26;98139.31;102326;1299;75266;-24
2022/12/13 09:21:21;;;;;;;7.60;4.80;;;;;;;-1.15;77.43;98133.45;102392;1299;76714;-24
2022/12/13 09:23:58;;;;;;;12.30;6.00;;;;;;;-1.28;78.10;98133.04;102194;1285;74955;-24
2022/12/13 09:26:27;;;;;;;6.50;4.20;;;;;;;-1.29;78.17;98134.93;102092;1299;61184;-24
2022/12/13 09:29:03;;;;;;;12.60;6.30;;;;;;;-1.43;78.18;98133.02;102266;1297;62702;-24
2022/12/13 09:31:39;;;;;;;7.80;4.90;;;;;;;-1.48;77.93;98131.40;102358;1299;75465;-24
2022/12/13 09:34:07;;;;;;;8.90;5.60;;;;;;;-0.96;76.57;98133.02;102392;1300;75731;-24
2022/12/13 09:36:34;;;;;;;9.40;4.90;;;;;;;-0.40;74.15;98130.06;102034;1295;75206;-24
2022/12/13 09:39:02;;;;;;;7.70;5.00;;;;;;;-0.42;72.79;98133.09;102124;1295;61405;-24
2022/12/13 09:41:32;;;;;;;9.90;4.90;;;;;;;-0.43;73.16;98134.67;102172;1302;61745;-24
2022/12/13 09:44:11;;;;;;;7.90;5.10;;;;;;;-0.74;73.20;98140.65;101981;1302;75340;-24
2022/12/13 09:46:58;;;;;;;7.60;5.10;;;;;;;-0.86;73.99;98138.52;101974;1296;75817;-24
2022/12/13 09:49:43;;;;;;;6.70;4.00;;;;;;;-1.19;73.41;98136.35;102170;1295;75230;-24
2022/12/13 09:52:18;;;;;;;8.80;4.80;;;;;;;-1.21;73.98;98133.19;102226;1299;62298;-24
2022/12/13 09:54:49;;;;;;;7.70;4.40;;;;;;;-1.34;74.54;98134.98;101954;1299;62428;-24
2022/12/13 09:57:18;;;;;;;13.50;6.10;;;;;;;-1.49;74.14;98131.26;102018;1299;74360;-24
2022/12/13 10:00:05;;;;;;;8.20;5.40;;;;;;;-1.32;74.26;98138.14;102119;1293;76829;-24
2022/12/13 10:02:57;;;;;;;6.90;4.20;;;;;;;-0.54;72.50;98134.05;102248;1295;74140;-24
2022/12/13 10:05:34;;;;;;;7.90;5.00;;;;;;;-0.29;71.04;98137.17;102048;1298;62305;-24
2022/12/13 10:08:15;;;;;;;8.40;4.10;;;;;;;-0.49;70.52;98131.75;102094;1295;62535;-24
2022/12/13 10:10:43;;;;;;;6.90;4.20;;;;;;;-0.68;71.56;98130.60;102077;1301;75529;-24
2022/12/13 10:13:30;;;;;;;7.00;4.20;;;;;;;-0.99;72.41;98128.58;102307;1299;75730;-24
2022/12/13 10:16:02;;;;;;;5.10;4.00;;;;;;;-1.31;73.01;98132.45;102127;1301;75140;-24
2022/12/13 10:18:34;;;;;;;5.30;4.00;;;;;;;-1.45;73.66;98131.75;102035;1299;62594;-24
2022/12/13 10:21:03;;;;;;;7.90;4.40;;;;;;;-1.51;73.50;98131.55;102037;1298;61697;-24
2022/12/13 10:23:30;;;;;;;4.00;2.70;;;;;;;-1.74;73.20;98131.04;102191;1302;75551;-24
2022/12/13 10:26:17;;;;;;;8.20;3.90;;;;;;;-1.36;72.00;98131.52;102325;1295;76161;-24
2022/12/13 10:28:50;;;;;;;5.40;2.50;;;;;;;-0.94;70.35;98140.59;102324;1295;75410;-24
2022/12/13 10:31:18;;;;;;;6.50;4.30;;;;;;;-0.96;70.46;98139.35;102118;1299;61870;-24
2022/12/13 10:34:03;;;;;;;6.70;4.30;;;;;;;-1.06;69.06;98135.23;102028;1299;61638;-24
2022/12/13 10:36:34;;;;;;;6.10;3.80;;;;;;;-1.31;70.47;98141.52;102294;1297;76436;-24
2022/12/13 10:39:02;;;;;;;7.10;3.60;;;;;;;-1.49;70.28;98141.16;102010;1302;77049;-24
2022/12/13 10:41:38;;;;;;;6.60;4.30;;;;;;;-1.68;70.57;98138.44;102243;1299;74906;-26
2022/12/13 10:44:16;;;;;;;4.40;3.50;;;;;;;-1.86;70.86;98129.08;102191;1299;61104;-26
2022/12/13 10:47:09;;;;;;;4.90;3.40;;;;;;;-1.98;71.46;98140.44;102101;1298;61809;-25
2022/12/13 10:49:57;;;;;;;16.20;3.70;;;;;;;-1.91;72.21;98142.07;102163;1298;75434;-26
2022/12/13 10:52:28;;;;;;;8.10;3.90;;;;;;;-2.03;71.66;98140.84;102111;1299;77314;-25
2022/12/13 10:55:21;;;;;;;8.70;2.90;;;;;;;-1.93;72.46;98145.02;102079;1294;75072;-25
2022/12/13 10:57:51;;;;;;;5.30;3.70;;;;;;;-1.37;70.73;98142.12;102032;1294;61138;-23
2022/12/13 11:00:36;;;;;;;6.70;3.90;;;;;;;-1.26;69.52;98141.63;102025;1299;61119;-23
2022/12/13 11:03:03;;;;;;;5.50;3.00;;;;;;;-1.34;68.93;98141.80;102342;1292;76236;-23
2022/12/13 11:05:32;;;;;;;4.90;3.20;;;;;;;-1.37;70.13;98147.93;102294;1285;76059;-23
2022/12/13 11:08:22;;;;;;;6.70;3.50;;;;;;;-1.51;70.36;98144.65;102023;1299;74188;-23
2022/12/13 11:10:57;;;;;;;8.00;4.70;;;;;;;-1.56;70.24;98141.65;102084;1302;61806;-23
2022/12/13 11:13:44;;;;;;;7.60;3.60;;;;;;;-1.69;71.18;98144.28;102211;1299;61755;-23
2022/12/13 11:16:32;;;;;;;10.40;4.40;;;;;;;-1.82;71.59;98140.29;101972;1294;76797;-23
2022/12/13 11:19:19;;;;;;;5.10;3.40;;;;;;;-1.90;72.10;98141.33;102195;1298;76603;-23
2022/12/13 11:21:47;;;;;;;6.80;4.60;;;;;;;-1.92;71.72;98141.90;102192;1300;74900;-23
2022/12/13 11:24:41;;;;;;;7.60;3.90;;;;;;;-1.60;70.23;98144.22;102291;1292;61161;-23
2022/12/13 11:27:36;;;;;;;6.90;3.90;;;;;;;-1.33;69.37;98148.42;102113;1294;62726;-24
2022/12/13 11:30:22;;;;;;;5.30;3.80;;;;;;;-1.30;69.56;98149.98;102160;1278;76513;-23
2022/12/13 11:33:14;;;;;;;7.10;4.50;;;;;;;-1.37;70.60;98148.58;102267;1291;75113;-23
2022/12/13 11:36:05;;;;;;;7.10;4.30;;;;;;;-1.48;70.71;98150.48;102167;1299;74935;-23
2022/12/13 11:38:51;;;;;;;5.70;3.70;;;;;;;-1.65;69.82;98150.56;102258;1299;61070;-23
2022/12/13 11:41:28;;;;;;;6.90;3.60;;;;;;;-1.85;69.51;98149.77;102171;1292;61725;-23
2022/12/13 11:44:21;;;;;;;5.80;3.60;;;;;;;-1.99;70.16;98137.96;101900;1298;75394;-23
2022/12/13 11:46:53;;;;;;;5.90;3.30;;;;;;;-2.06;70.81;98153.42;102039;1296;75709;-23
2022/12/13 11:49:35;;;;;;;7.90;3.90;;;;;;;-2.14;70.85;98151.55;102331;1299;75282;-23
2022/12/13 11:52:21;;;;;;;5.40;3.40;;;;;;;-2.02;70.14;98149.16;102250;1294;62669;-23
2022/12/13 11:55:00;;;;;;;5.80;3.40;;;;;;;-1.56;68.99;98160.05;102243;1298;61160;-23